logo
Search for airport 
image banner adimage banner adimage banner ad
image banner ad

LODG - Graz Sud-West, Standort Sud Lkh

Located in District Graz(Stadt), Austria

ICAO - , IATA -

Data provided by Airmate  

General information

Coordinates: N47°2'19" E15°25'12"
Elevation is 1156 feet MSL.
 
View others Airports in Styria

Operational data

Special qualification required
Current time UTC:
Current local time:
Weather at : LOWG - Graz ( 5 km )
METAR: LOWG 171750Z AUTO 36009KT CAVOK 09/M00 Q1006 NOSIG
TAF: TAF LOWG 171715Z 1718/1818 VRB05KT 9999 FEW040 SCT050 TX09/1814Z TN03/1804Z PROB30 TEMPO 1803/1806 0700 BCFG TEMPO 1808/1816 -SHRA FEW030CB BKN040 PROB30 TEMPO 1809/1813 VRB15KT TSRA
View NOTAMs / SUP AIP / TFR affecting this airport [VIEW]
Communications frequencies: [VIEW]

Runways:

Airport contact information

Address: District Graz(Stadt) Austria

Satellite view of LODG